createdAt,value
2018-08-04T00:00:11.996Z,100779.77
2018-08-04T00:02:39.717Z,100780.98
2018-08-04T00:05:09.069Z,100783.18
2018-08-04T00:07:37.325Z,100786.88
2018-08-04T00:10:12.901Z,100786.34
2018-08-04T00:12:40.948Z,100779.97
2018-08-04T00:15:08.733Z,100786.38
2018-08-04T00:17:36.916Z,100779.80
2018-08-04T00:20:04.833Z,100785.75
2018-08-04T00:22:32.545Z,100783.20
2018-08-04T00:25:01.388Z,100782.16
2018-08-04T00:27:29.104Z,100778.64
2018-08-04T00:29:56.817Z,100775.78
2018-08-04T00:32:24.552Z,100784.28
2018-08-04T00:34:52.248Z,100779.37
2018-08-04T00:37:19.972Z,100779.14
2018-08-04T00:39:47.672Z,100782.02
2018-08-04T00:42:15.387Z,100782.59
2018-08-04T00:44:43.072Z,100784.54
2018-08-04T00:47:10.792Z,100783.77
2018-08-04T00:49:38.511Z,100786.59
2018-08-04T00:52:06.298Z,100777.92
2018-08-04T00:54:34.012Z,100777.38
2018-08-04T00:57:01.712Z,100776.21
2018-08-04T00:59:29.446Z,100774.95
2018-08-04T01:01:57.191Z,100776.37
2018-08-04T01:04:24.935Z,100777.36
2018-08-04T01:06:52.672Z,100766.20
2018-08-04T01:09:20.427Z,100773.23
2018-08-04T01:11:48.279Z,100778.55
2018-08-04T01:14:16.020Z,100776.58
2018-08-04T01:16:43.752Z,100774.08
2018-08-04T01:19:11.512Z,100771.11
2018-08-04T01:21:39.248Z,100770.72
2018-08-04T01:24:07.008Z,100774.39
2018-08-04T01:26:34.728Z,100772.70
2018-08-04T01:29:02.433Z,100772.82
2018-08-04T01:31:30.266Z,100772.05
2018-08-04T01:33:58.012Z,100778.38
2018-08-04T01:36:25.689Z,100773.53
2018-08-04T01:38:53.415Z,100773.59
2018-08-04T01:41:21.153Z,100773.59
2018-08-04T01:43:48.845Z,100774.00
2018-08-04T01:46:16.584Z,100773.23
2018-08-04T01:48:44.280Z,100773.59
2018-08-04T01:51:11.996Z,100770.94
2018-08-04T01:53:39.744Z,100764.00
2018-08-04T01:56:07.480Z,100767.21
2018-08-04T01:58:35.183Z,100766.25
2018-08-04T02:01:02.952Z,100765.88
2018-08-04T02:03:30.661Z,100762.67
2018-08-04T02:05:58.380Z,100763.48
2018-08-04T02:08:26.298Z,100766.13
2018-08-04T02:10:54.041Z,100769.16
2018-08-04T02:13:21.876Z,100760.83
2018-08-04T02:15:49.612Z,100766.95
2018-08-04T02:18:17.329Z,100765.57
2018-08-04T02:20:45.055Z,100765.87
2018-08-04T02:23:12.764Z,100762.86
2018-08-04T02:25:40.465Z,100759.64
2018-08-04T02:28:08.200Z,100758.63
2018-08-04T02:30:35.949Z,100756.67
2018-08-04T02:33:03.699Z,100755.65
2018-08-04T02:35:31.439Z,100757.31
2018-08-04T02:37:59.182Z,100750.02
2018-08-04T02:40:26.993Z,100754.25
2018-08-04T02:42:54.708Z,100750.10
2018-08-04T02:45:22.438Z,100753.92
2018-08-04T02:47:50.216Z,100747.99
2018-08-04T02:50:17.977Z,100749.66
2018-08-04T02:52:45.717Z,100752.52
2018-08-04T02:55:13.455Z,100745.58
2018-08-04T02:57:41.167Z,100749.08
2018-08-04T03:00:08.922Z,100748.52
2018-08-04T03:02:36.693Z,100738.02
2018-08-04T03:05:04.712Z,100735.20
2018-08-04T03:07:32.432Z,100742.47
2018-08-04T03:10:00.172Z,100737.28
2018-08-04T03:12:27.871Z,100736.41
2018-08-04T03:14:55.572Z,100736.94
2018-08-04T03:17:23.352Z,100733.47
2018-08-04T03:19:51.072Z,100738.67
2018-08-04T03:22:18.802Z,100733.87
2018-08-04T03:24:46.594Z,100736.97
2018-08-04T03:27:14.338Z,100730.27
2018-08-04T03:29:42.076Z,100729.67
2018-08-04T03:32:09.795Z,100727.27
2018-08-04T03:34:37.531Z,100730.33
2018-08-04T03:37:05.309Z,100727.16
2018-08-04T03:39:33.010Z,100731.00
2018-08-04T03:42:00.746Z,100730.34
2018-08-04T03:44:28.460Z,100730.11
2018-08-04T03:46:56.176Z,100726.00
2018-08-04T03:49:23.896Z,100721.07
2018-08-04T03:51:51.632Z,100729.16
2018-08-04T03:54:19.324Z,100720.12
2018-08-04T03:56:47.026Z,100723.66
2018-08-04T03:59:14.770Z,100721.27
2018-08-04T04:01:42.445Z,100720.33
2018-08-04T04:04:10.134Z,100721.07
2018-08-04T04:06:37.935Z,100719.72
2018-08-04T04:09:07.689Z,100716.97
2018-08-04T04:11:35.409Z,100714.69
2018-08-04T04:14:03.248Z,100720.92
2018-08-04T04:16:30.952Z,100719.50
2018-08-04T04:18:58.841Z,100726.34
2018-08-04T04:21:26.553Z,100725.75
2018-08-04T04:23:54.273Z,100722.70
2018-08-04T04:26:22.011Z,100727.44
2018-08-04T04:28:49.758Z,100724.34
2018-08-04T04:31:17.431Z,100725.50
2018-08-04T04:33:45.136Z,100717.90
2018-08-04T04:36:12.875Z,100717.51
2018-08-04T04:38:40.577Z,100718.34
2018-08-04T04:41:08.303Z,100719.49
2018-08-04T04:43:36.063Z,100713.31
2018-08-04T04:46:03.803Z,100708.37
2018-08-04T04:48:31.584Z,100714.81
2018-08-04T04:50:59.296Z,100708.45
2018-08-04T04:53:26.985Z,100710.81
2018-08-04T04:55:54.699Z,100714.71
2018-08-04T04:58:22.472Z,100709.56
2018-08-04T05:00:50.199Z,100715.31
2018-08-04T05:03:17.920Z,100707.87
2018-08-04T05:05:45.657Z,100704.91
2018-08-04T05:08:13.393Z,100700.39
2018-08-04T05:10:41.124Z,100705.75
2018-08-04T05:13:08.897Z,100697.30
2018-08-04T05:15:36.675Z,100694.92
2018-08-04T05:18:04.589Z,100698.23
2018-08-04T05:20:32.326Z,100693.64
2018-08-04T05:23:00.097Z,100692.45
2018-08-04T05:25:27.844Z,100693.80
2018-08-04T05:27:55.609Z,100694.45
2018-08-04T05:30:23.333Z,100689.25
2018-08-04T05:32:51.140Z,100676.25
2018-08-04T05:35:18.884Z,100681.88
2018-08-04T05:37:46.652Z,100678.28
2018-08-04T05:40:14.442Z,100673.80
2018-08-04T05:42:42.198Z,100676.38
2018-08-04T05:45:10.141Z,100673.77
2018-08-04T05:47:38.336Z,100670.84
2018-08-04T05:50:06.706Z,100671.55
2018-08-04T05:52:34.441Z,100665.62
2018-08-04T05:55:02.203Z,100666.16
2018-08-04T05:57:29.924Z,100669.39
2018-08-04T05:59:57.655Z,100666.19
2018-08-04T06:02:25.522Z,100660.36
2018-08-04T06:04:53.257Z,100660.00
2018-08-04T06:07:20.977Z,100662.05
2018-08-04T06:09:48.792Z,100656.28
2018-08-04T06:12:16.511Z,100664.42
2018-08-04T06:14:44.308Z,100663.37
2018-08-04T06:17:12.078Z,100649.86
2018-08-04T06:19:39.817Z,100655.67
2018-08-04T06:22:07.627Z,100653.20
2018-08-04T06:24:35.336Z,100655.75
2018-08-04T06:27:03.164Z,100650.12
2018-08-04T06:29:31.001Z,100656.10
2018-08-04T06:31:58.720Z,100652.28
2018-08-04T06:34:26.438Z,100648.57
2018-08-04T06:36:54.201Z,100652.69
2018-08-04T06:39:21.956Z,100645.36
2018-08-04T06:41:49.725Z,100635.50
2018-08-04T06:44:17.435Z,100639.78
2018-08-04T06:46:45.180Z,100636.93
2018-08-04T06:49:12.940Z,100634.09
2018-08-04T06:51:40.667Z,100625.46
2018-08-04T06:54:08.524Z,100636.03
2018-08-04T06:56:36.303Z,100628.73
2018-08-04T06:59:04.148Z,100632.93
2018-08-04T07:01:32.131Z,100624.83
2018-08-04T07:03:59.901Z,100628.34
2018-08-04T07:06:28.484Z,100621.89
2018-08-04T07:08:56.216Z,100627.83
2018-08-04T07:11:23.975Z,100620.99
2018-08-04T07:13:51.678Z,100623.33
2018-08-04T07:16:19.440Z,100620.34
2018-08-04T07:18:47.183Z,100620.57
2018-08-04T07:21:14.904Z,100615.64
2018-08-04T07:23:42.711Z,100616.87
2018-08-04T07:26:10.516Z,100617.70
2018-08-04T07:28:38.254Z,100620.58
2018-08-04T07:31:06.223Z,100624.30
2018-08-04T07:33:34.001Z,100615.03
2018-08-04T07:36:01.696Z,100608.95
2018-08-04T07:38:29.448Z,100614.55
2018-08-04T07:40:57.252Z,100608.59
2018-08-04T07:43:24.940Z,100606.63
2018-08-04T07:45:52.704Z,100600.23
2018-08-04T07:48:20.429Z,100598.83
2018-08-04T07:50:48.248Z,100603.95
2018-08-04T07:53:15.984Z,100613.56
2018-08-04T07:55:43.740Z,100620.78
2018-08-04T07:58:11.478Z,100608.05
2018-08-04T08:00:39.162Z,100603.82
2018-08-04T08:03:06.913Z,100614.68
2018-08-04T08:05:34.720Z,100610.89
2018-08-04T08:08:02.492Z,100609.47
2018-08-04T08:10:30.323Z,100612.25
2018-08-04T08:12:57.976Z,100607.25
2018-08-04T08:15:25.700Z,100615.45
2018-08-04T08:17:53.435Z,100614.25
2018-08-04T08:20:21.208Z,100607.41
2018-08-04T08:22:48.992Z,100613.63
2018-08-04T08:25:16.722Z,100604.81
2018-08-04T08:27:44.439Z,100608.25
2018-08-04T08:30:14.500Z,100603.19
2018-08-04T08:32:42.339Z,100605.98
2018-08-04T08:35:10.629Z,100604.27
2018-08-04T08:37:38.466Z,100606.30
2018-08-04T08:40:06.847Z,100598.33
2018-08-04T08:42:34.645Z,100600.66
2018-08-04T08:45:02.495Z,100599.84
2018-08-04T08:47:30.209Z,100597.22
2018-08-04T08:49:57.982Z,100602.08
2018-08-04T08:52:25.716Z,100599.78
2018-08-04T08:54:53.538Z,100596.87
2018-08-04T08:57:21.305Z,100597.05
2018-08-04T08:59:49.091Z,100590.67
2018-08-04T09:02:16.880Z,100597.00
2018-08-04T09:04:44.629Z,100590.44
2018-08-04T09:07:12.469Z,100580.05
2018-08-04T09:09:40.272Z,100577.44
2018-08-04T09:12:08.025Z,100588.53
2018-08-04T09:14:35.820Z,100583.20
2018-08-04T09:17:03.561Z,100580.05
2018-08-04T09:19:31.536Z,100574.02
2018-08-04T09:21:59.410Z,100576.61
2018-08-04T09:24:27.168Z,100577.98
2018-08-04T09:26:54.889Z,100579.28
2018-08-04T09:29:22.633Z,100571.02
2018-08-04T09:31:50.388Z,100565.75
2018-08-04T09:34:18.139Z,100568.63
2018-08-04T09:36:45.847Z,100570.29
2018-08-04T09:39:13.769Z,100561.41
2018-08-04T09:41:42.009Z,100563.16
2018-08-04T09:44:10.332Z,100559.25
2018-08-04T09:46:39.163Z,100556.38
2018-08-04T09:49:07.024Z,100565.45
2018-08-04T09:51:34.837Z,100560.59
2018-08-04T09:54:02.605Z,100554.88
2018-08-04T09:56:30.338Z,100542.27
2018-08-04T09:58:58.072Z,100545.11
2018-08-04T10:01:31.268Z,100542.80
2018-08-04T10:03:59.091Z,100541.51
2018-08-04T10:06:26.896Z,100545.75
2018-08-04T10:08:54.635Z,100545.56
2018-08-04T10:11:22.546Z,100545.39
2018-08-04T10:13:50.319Z,100548.24
2018-08-04T10:16:18.062Z,100540.93
2018-08-04T10:18:45.824Z,100540.17
2018-08-04T10:21:13.543Z,100541.17
2018-08-04T10:23:41.276Z,100536.02
2018-08-04T10:26:09.069Z,100540.92
2018-08-04T10:28:36.836Z,100529.64
2018-08-04T10:31:04.557Z,100530.16
2018-08-04T10:33:32.272Z,100526.77
2018-08-04T10:36:00.057Z,100527.70
2018-08-04T10:38:27.875Z,100530.45
2018-08-04T10:40:55.620Z,100523.86
2018-08-04T10:43:23.410Z,100520.66
2018-08-04T10:45:51.290Z,100521.71
2018-08-04T10:48:19.021Z,100512.64
2018-08-04T10:50:46.774Z,100512.78
2018-08-04T10:53:14.580Z,100514.45
2018-08-04T10:55:42.289Z,100519.11
2018-08-04T10:58:10.008Z,100514.52
2018-08-04T11:00:37.969Z,100506.81
2018-08-04T11:03:05.767Z,100516.66
2018-08-04T11:05:33.532Z,100508.36
2018-08-04T11:08:01.301Z,100513.53
2018-08-04T11:10:29.012Z,100506.88
2018-08-04T11:12:56.775Z,100521.83
2018-08-04T11:15:24.564Z,100514.95
2018-08-04T11:17:52.352Z,100505.05
2018-08-04T11:20:20.155Z,100512.17
2018-08-04T11:22:47.900Z,100507.47
2018-08-04T11:25:15.605Z,100508.67
2018-08-04T11:27:43.317Z,100507.55
2018-08-04T11:30:11.028Z,100502.45
2018-08-04T11:32:38.761Z,100506.48
2018-08-04T11:35:06.562Z,100502.16
2018-08-04T11:37:34.368Z,100508.98
2018-08-04T11:40:02.124Z,100508.02
2018-08-04T11:42:29.864Z,100503.26
2018-08-04T11:44:57.623Z,100503.92
2018-08-04T11:47:25.356Z,100501.34
2018-08-04T11:49:53.064Z,100504.32
2018-08-04T11:52:20.773Z,100496.31
2018-08-04T11:54:48.507Z,100490.98
2018-08-04T11:57:16.283Z,100489.28
2018-08-04T11:59:44.013Z,100489.66
2018-08-04T12:02:11.743Z,100491.93
2018-08-04T12:04:39.525Z,100491.73
2018-08-04T12:07:07.236Z,100487.80
2018-08-04T12:09:34.944Z,100487.13
2018-08-04T12:12:02.813Z,100486.48
2018-08-04T12:14:30.553Z,100490.08
2018-08-04T12:16:58.332Z,100479.51
2018-08-04T12:19:26.085Z,100488.28
2018-08-04T12:21:53.880Z,100487.13
2018-08-04T12:24:21.610Z,100480.06
2018-08-04T12:26:49.348Z,100484.77
2018-08-04T12:29:17.161Z,100486.34
2018-08-04T12:31:44.864Z,100487.20
2018-08-04T12:34:12.581Z,100489.86
2018-08-04T12:36:40.315Z,100484.61
2018-08-04T12:39:09.713Z,100489.72
2018-08-04T12:41:37.490Z,100484.28
2018-08-04T12:44:06.144Z,100488.02
2018-08-04T12:46:33.892Z,100486.83
2018-08-04T12:49:01.653Z,100494.80
2018-08-04T12:51:29.507Z,100493.47
2018-08-04T12:53:57.255Z,100481.20
2018-08-04T12:56:24.976Z,100483.20
2018-08-04T12:58:52.727Z,100487.45
2018-08-04T13:01:20.432Z,100474.42
2018-08-04T13:03:48.186Z,100487.38
2018-08-04T13:06:15.995Z,100479.70
2018-08-04T13:08:43.765Z,100476.97
2018-08-04T13:11:11.532Z,100490.21
2018-08-04T13:13:39.336Z,100487.34
2018-08-04T13:16:07.213Z,100490.16
2018-08-04T13:18:34.980Z,100481.20
2018-08-04T13:21:02.699Z,100490.99
2018-08-04T13:23:30.432Z,100484.28
2018-08-04T13:25:58.145Z,100484.02
2018-08-04T13:28:25.900Z,100491.67
2018-08-04T13:30:53.631Z,100493.78
2018-08-04T13:33:21.494Z,100490.27
2018-08-04T13:35:49.231Z,100484.70
2018-08-04T13:38:16.979Z,100480.25
2018-08-04T13:40:44.768Z,100481.65
2018-08-04T13:43:12.508Z,100481.61
2018-08-04T13:45:40.216Z,100483.09
2018-08-04T13:48:07.956Z,100475.33
2018-08-04T13:50:35.657Z,100469.52
2018-08-04T13:53:03.357Z,100472.72
2018-08-04T13:55:31.153Z,100472.83
2018-08-04T13:57:58.871Z,100468.55
2018-08-04T14:00:26.632Z,100469.02
2018-08-04T14:02:54.420Z,100460.00
2018-08-04T14:05:22.169Z,100461.84
2018-08-04T14:07:49.889Z,100459.25
2018-08-04T14:10:17.597Z,100452.16
2018-08-04T14:12:45.498Z,100455.42
2018-08-04T14:15:13.251Z,100445.73
2018-08-04T14:17:41.043Z,100451.96
2018-08-04T14:20:08.857Z,100453.91
2018-08-04T14:22:36.645Z,100451.37
2018-08-04T14:25:04.440Z,100449.53
2018-08-04T14:27:32.220Z,100452.84
2018-08-04T14:30:00.141Z,100450.03
2018-08-04T14:32:27.896Z,100456.36
2018-08-04T14:34:55.686Z,100448.59
2018-08-04T14:37:23.434Z,100446.72
2018-08-04T14:39:51.681Z,100445.56
2018-08-04T14:42:19.455Z,100444.52
2018-08-04T14:44:47.175Z,100437.58
2018-08-04T14:47:14.900Z,100436.00
2018-08-04T14:49:42.669Z,100435.28
2018-08-04T14:52:10.413Z,100433.90
2018-08-04T14:54:38.112Z,100441.34
2018-08-04T14:57:05.843Z,100437.11
2018-08-04T14:59:33.621Z,100430.31
2018-08-04T15:02:01.336Z,100432.09
2018-08-04T15:04:29.058Z,100430.44
2018-08-04T15:06:56.859Z,100428.38
2018-08-04T15:09:24.640Z,100427.85
2018-08-04T15:11:52.349Z,100430.35
2018-08-04T15:14:20.133Z,100429.21
2018-08-04T15:16:47.880Z,100419.84
2018-08-04T15:19:15.599Z,100431.22
2018-08-04T15:21:43.337Z,100427.02
2018-08-04T15:24:11.102Z,100428.48
2018-08-04T15:26:38.810Z,100423.11
2018-08-04T15:29:06.641Z,100427.48
2018-08-04T15:31:34.344Z,100422.75
2018-08-04T15:34:02.160Z,100425.78
2018-08-04T15:36:29.932Z,100422.14
2018-08-04T15:38:57.646Z,100413.36
2018-08-04T15:41:25.396Z,100416.78
2018-08-04T15:43:53.156Z,100414.26
2018-08-04T15:46:20.893Z,100414.10
2018-08-04T15:48:48.595Z,100414.81
2018-08-04T15:51:16.364Z,100414.62
2018-08-04T15:53:44.117Z,100411.75
2018-08-04T15:56:11.924Z,100417.33
2018-08-04T15:58:39.648Z,100408.17
2018-08-04T16:01:07.424Z,100408.86
2018-08-04T16:03:35.248Z,100412.09
2018-08-04T16:06:03.018Z,100415.12
2018-08-04T16:08:30.890Z,100412.26
2018-08-04T16:10:58.635Z,100419.23
2018-08-04T16:13:26.485Z,100412.45
2018-08-04T16:15:54.236Z,100416.22
2018-08-04T16:18:21.984Z,100420.25
2018-08-04T16:20:49.713Z,100421.30
2018-08-04T16:23:17.508Z,100420.30
2018-08-04T16:25:45.204Z,100419.63
2018-08-04T16:28:12.936Z,100419.83
2018-08-04T16:30:40.681Z,100412.34
2018-08-04T16:33:08.396Z,100412.19
2018-08-04T16:35:36.181Z,100413.89
2018-08-04T16:38:03.954Z,100418.48
2018-08-04T16:40:31.672Z,100423.37
2018-08-04T16:42:59.396Z,100421.20
2018-08-04T16:45:27.140Z,100423.20
2018-08-04T16:47:54.946Z,100421.31
2018-08-04T16:50:22.681Z,100433.20
2018-08-04T16:52:50.428Z,100420.49
2018-08-04T16:55:18.188Z,100422.34
2018-08-04T16:57:45.895Z,100417.27
2018-08-04T17:00:13.628Z,100422.02
2018-08-04T17:02:41.411Z,100421.52
2018-08-04T17:05:09.243Z,100429.45
2018-08-04T17:07:36.974Z,100420.64
2018-08-04T17:10:04.990Z,100421.32
2018-08-04T17:12:32.742Z,100418.95
2018-08-04T17:15:00.465Z,100425.37
2018-08-04T17:17:28.244Z,100424.67
2018-08-04T17:19:56.030Z,100420.27
2018-08-04T17:22:23.850Z,100417.22
2018-08-04T17:24:51.581Z,100415.64
2018-08-04T17:27:19.333Z,100412.58
2018-08-04T17:29:47.057Z,100410.32
2018-08-04T17:32:14.765Z,100406.41
2018-08-04T17:34:42.524Z,100407.20
2018-08-04T17:37:10.261Z,100410.36
2018-08-04T17:39:37.992Z,100408.72
2018-08-04T17:42:05.979Z,100403.22
2018-08-04T17:44:33.807Z,100409.31
2018-08-04T17:47:01.482Z,100413.64
2018-08-04T17:49:29.251Z,100419.47
2018-08-04T17:51:57.051Z,100418.72
2018-08-04T17:54:24.777Z,100411.19
2018-08-04T17:56:52.547Z,100417.48
2018-08-04T17:59:20.340Z,100418.12
2018-08-04T18:01:48.080Z,100407.97
2018-08-04T18:04:15.848Z,100409.44
2018-08-04T18:06:43.576Z,100408.55
2018-08-04T18:09:11.318Z,100405.57
2018-08-04T18:11:40.312Z,100412.36
2018-08-04T18:14:08.076Z,100408.39
2018-08-04T18:16:36.104Z,100414.09
2018-08-04T18:19:04.000Z,100415.81
2018-08-04T18:21:32.021Z,100413.91
2018-08-04T18:23:59.907Z,100409.87
2018-08-04T18:26:27.693Z,100411.91
2018-08-04T18:28:55.408Z,100413.28
2018-08-04T18:31:23.136Z,100417.01
2018-08-04T18:33:50.895Z,100418.55
2018-08-04T18:36:18.617Z,100411.66
2018-08-04T18:38:46.413Z,100405.01
2018-08-04T18:41:14.152Z,100407.48
2018-08-04T18:43:41.884Z,100410.00
2018-08-04T18:46:09.698Z,100414.27
2018-08-04T18:48:37.481Z,100411.73
2018-08-04T18:51:05.278Z,100409.56
2018-08-04T18:53:33.089Z,100413.56
2018-08-04T18:56:00.849Z,100413.77
2018-08-04T18:58:28.619Z,100417.80
2018-08-04T19:00:56.408Z,100418.77
2018-08-04T19:03:24.172Z,100418.47
2018-08-04T19:05:51.932Z,100415.55
2018-08-04T19:08:19.705Z,100418.75
2018-08-04T19:10:47.460Z,100418.77
2018-08-04T19:13:15.185Z,100419.27
2018-08-04T19:15:42.959Z,100424.42
2018-08-04T19:18:11.096Z,100428.45
2018-08-04T19:20:38.920Z,100425.78
2018-08-04T19:23:06.693Z,100432.11
2018-08-04T19:25:34.432Z,100426.61
2018-08-04T19:28:02.208Z,100421.11
2018-08-04T19:30:29.908Z,100425.98
2018-08-04T19:32:57.712Z,100428.80
2018-08-04T19:35:25.501Z,100420.51
2018-08-04T19:37:53.244Z,100424.77
2018-08-04T19:40:20.979Z,100419.41
2018-08-04T19:42:48.777Z,100422.23
2018-08-04T19:45:16.525Z,100421.85
2018-08-04T19:47:44.270Z,100424.91
2018-08-04T19:50:12.064Z,100429.41
2018-08-04T19:52:39.820Z,100428.41
2018-08-04T19:55:07.549Z,100433.39
2018-08-04T19:57:35.284Z,100426.84
2018-08-04T20:00:03.175Z,100428.66
2018-08-04T20:02:30.993Z,100424.88
2018-08-04T20:04:58.761Z,100431.67
2018-08-04T20:07:26.501Z,100433.63
2018-08-04T20:09:54.680Z,100428.86
2018-08-04T20:12:22.383Z,100428.76
2018-08-04T20:14:50.223Z,100427.52
2018-08-04T20:17:17.999Z,100430.95
2018-08-04T20:19:45.891Z,100431.30
2018-08-04T20:22:16.068Z,100431.78
2018-08-04T20:24:44.230Z,100429.00
2018-08-04T20:27:12.028Z,100426.56
2018-08-04T20:29:39.791Z,100425.70
2018-08-04T20:32:07.897Z,100432.40
2018-08-04T20:34:35.629Z,100431.44
2018-08-04T20:37:03.419Z,100429.86
2018-08-04T20:39:31.215Z,100433.50
2018-08-04T20:41:59.055Z,100421.21
2018-08-04T20:44:26.777Z,100427.31
2018-08-04T20:46:54.826Z,100426.94
2018-08-04T20:49:22.544Z,100428.14
2018-08-04T20:51:50.680Z,100426.80
2018-08-04T20:54:18.832Z,100426.33
2018-08-04T20:56:46.582Z,100423.06
2018-08-04T20:59:15.328Z,100421.96
2018-08-04T21:01:49.174Z,100423.41
2018-08-04T21:04:17.051Z,100421.83
2018-08-04T21:06:44.793Z,100424.39
2018-08-04T21:09:12.588Z,100424.64
2018-08-04T21:11:49.798Z,100423.30
2018-08-04T21:14:18.192Z,100423.41
2018-08-04T21:16:46.317Z,100419.77
2018-08-04T21:19:14.089Z,100415.64
2018-08-04T21:21:42.212Z,100412.59
2018-08-04T21:24:09.991Z,100410.77
2018-08-04T21:26:37.812Z,100407.23
2018-08-04T21:29:06.117Z,100421.96
2018-08-04T21:31:34.037Z,100408.81
2018-08-04T21:34:02.034Z,100409.78
2018-08-04T21:36:30.672Z,100406.63
2018-08-04T21:38:58.488Z,100406.11
2018-08-04T21:41:26.568Z,100403.68
2018-08-04T21:43:54.340Z,100401.86
2018-08-04T21:46:22.633Z,100399.91
2018-08-04T21:48:50.572Z,100403.78
2018-08-04T21:51:18.418Z,100398.53
2018-08-04T21:53:46.217Z,100395.38
2018-08-04T21:56:13.959Z,100399.73
2018-08-04T21:58:41.737Z,100401.67
2018-08-04T22:01:13.447Z,100404.45
2018-08-04T22:03:42.555Z,100401.48
2018-08-04T22:06:10.321Z,100405.73
2018-08-04T22:08:49.312Z,100404.48
2018-08-04T22:11:17.289Z,100402.84
2018-08-04T22:13:45.965Z,100403.02
2018-08-04T22:16:13.827Z,100407.34
2018-08-04T22:18:42.255Z,100414.47
2018-08-04T22:21:09.977Z,100415.34
2018-08-04T22:23:37.776Z,100410.81
2018-08-04T22:26:05.601Z,100412.31
2018-08-04T22:28:33.313Z,100410.47
2018-08-04T22:31:01.044Z,100411.39
2018-08-04T22:33:28.854Z,100407.28
2018-08-04T22:35:56.605Z,100408.94
2018-08-04T22:38:24.339Z,100410.55
2018-08-04T22:40:52.147Z,100410.05
2018-08-04T22:43:19.868Z,100410.33
2018-08-04T22:46:10.941Z,100402.02
2018-08-04T22:48:38.755Z,100409.42
2018-08-04T22:51:06.508Z,100406.97
2018-08-04T22:53:34.652Z,100406.80
2018-08-04T22:56:02.466Z,100401.81
2018-08-04T22:58:30.202Z,100401.63
2018-08-04T23:00:58.044Z,100395.27
2018-08-04T23:03:25.788Z,100403.02
2018-08-04T23:05:53.709Z,100402.58
2018-08-04T23:08:21.458Z,100398.62
2018-08-04T23:10:49.175Z,100403.42
2018-08-04T23:13:17.300Z,100400.67
2018-08-04T23:15:45.115Z,100399.29
2018-08-04T23:18:12.976Z,100403.97
2018-08-04T23:20:40.862Z,100401.81
2018-08-04T23:23:09.905Z,100399.30
2018-08-04T23:25:37.647Z,100400.53
2018-08-04T23:28:05.453Z,100398.28
2018-08-04T23:30:33.251Z,100401.35
2018-08-04T23:33:00.991Z,100403.69
2018-08-04T23:35:28.711Z,100397.05
2018-08-04T23:37:56.572Z,100393.51
2018-08-04T23:40:24.333Z,100399.23
2018-08-04T23:42:52.093Z,100396.11
2018-08-04T23:45:20.035Z,100393.85
2018-08-04T23:47:47.839Z,100389.02
2018-08-04T23:50:15.742Z,100394.73
2018-08-04T23:52:43.498Z,100392.94
2018-08-04T23:55:11.253Z,100394.55
2018-08-04T23:57:39.176Z,100388.38
